Time;durP1;ratioP1;P1;durP2;ratioP2;P2;SDS_P1;SDS_P2;PMS_P1;PMS_P2;Temp;Humidity;BMP_temperature;BMP_pressure;BME280_temperature;BME280_humidity;BME280_pressure;Samples;Min_cycle;Max_cycle;Signal;HPM_P1;HPM_P2
2021/03/06 00:01:40;;;;;;;18.40;9.82;;;;;;;-2.96;100.00;103444.63;5065277;28;20067;-65
2021/03/06 00:04:06;;;;;;;22.63;11.45;;;;;;;-3.01;100.00;103447.22;5062745;28;20147;-65
2021/03/06 00:06:32;;;;;;;25.42;10.40;;;;;;;-2.98;100.00;103443.72;5062427;28;20102;-63
2021/03/06 00:08:58;;;;;;;20.73;9.55;;;;;;;-3.03;100.00;103440.19;5062191;28;20442;-63
2021/03/06 00:11:24;;;;;;;19.80;10.50;;;;;;;-3.06;100.00;103442.75;5062422;28;20135;-65
2021/03/06 00:13:50;;;;;;;19.98;10.40;;;;;;;-3.06;100.00;103438.41;5062694;28;20052;-65
2021/03/06 00:16:16;;;;;;;16.67;10.00;;;;;;;-3.04;100.00;103447.19;5059319;28;20044;-65
2021/03/06 00:18:42;;;;;;;18.38;10.32;;;;;;;-3.08;100.00;103452.41;5062394;28;20449;-63
2021/03/06 00:21:08;;;;;;;14.80;10.10;;;;;;;-3.09;100.00;103438.38;5061455;28;20056;-63
2021/03/06 00:23:34;;;;;;;18.00;9.27;;;;;;;-3.14;100.00;103447.09;5062332;28;20570;-64
2021/03/06 00:26:00;;;;;;;18.58;9.95;;;;;;;-3.07;100.00;103444.53;5060293;28;20088;-63
2021/03/06 00:28:26;;;;;;;16.88;8.82;;;;;;;-3.11;100.00;103441.84;5061765;28;20056;-64
2021/03/06 00:30:53;;;;;;;14.85;8.73;;;;;;;-3.05;100.00;103441.91;5061516;28;20124;-63
2021/03/06 00:33:19;;;;;;;17.05;9.38;;;;;;;-3.10;100.00;103443.63;5059411;28;20064;-64
2021/03/06 00:35:45;;;;;;;16.02;8.57;;;;;;;-3.15;100.00;103445.31;5061045;28;20060;-63
2021/03/06 00:38:11;;;;;;;19.52;8.88;;;;;;;-3.22;100.00;103447.88;5060528;28;20060;-64
2021/03/06 00:40:37;;;;;;;19.42;8.85;;;;;;;-3.21;100.00;103443.50;5060763;28;20523;-64
2021/03/06 00:45:29;;;;;;;16.17;7.95;;;;;;;-3.17;100.00;103445.28;5104872;22;20045;-64
2021/03/06 00:47:56;;;;;;;18.13;9.02;;;;;;;-3.26;100.00;103440.81;5082172;28;20058;-63
2021/03/06 00:50:27;;;;;;;17.83;9.15;;;;;;;-3.35;100.00;103448.63;5081653;28;20056;-64
2021/03/06 00:52:53;;;;;;;17.23;9.32;;;;;;;-3.42;100.00;103452.03;5082225;28;20047;-64
2021/03/06 00:55:19;;;;;;;14.93;7.50;;;;;;;-3.47;100.00;103437.97;5075489;28;20061;-64
2021/03/06 00:57:45;;;;;;;22.65;7.50;;;;;;;-3.51;100.00;103444.91;5080431;28;20104;-64
2021/03/06 01:00:13;;;;;;;18.00;7.47;;;;;;;-3.53;100.00;103439.63;5080796;28;20076;-64
2021/03/06 01:02:39;;;;;;;13.75;6.75;;;;;;;-3.49;100.00;103442.31;5082201;28;20052;-64
2021/03/06 01:05:07;;;;;;;20.75;8.35;;;;;;;-3.48;100.00;103450.22;5081003;28;20062;-64
2021/03/06 01:07:33;;;;;;;15.93;8.20;;;;;;;-3.55;100.00;103444.00;5082204;28;20056;-63
2021/03/06 01:09:59;;;;;;;17.00;7.85;;;;;;;-3.54;100.00;103443.13;5081374;28;20052;-63
2021/03/06 01:12:25;;;;;;;16.88;7.68;;;;;;;-3.56;100.00;103451.91;5081280;28;20056;-63
2021/03/06 01:14:51;;;;;;;14.70;7.50;;;;;;;-3.55;100.00;103444.00;5087497;28;20040;-64
2021/03/06 01:17:17;;;;;;;12.45;6.13;;;;;;;-3.51;100.00;103450.19;5125040;22;20070;-64
2021/03/06 01:19:43;;;;;;;16.73;6.65;;;;;;;-3.53;100.00;103437.00;5061030;28;20049;-64
2021/03/06 01:22:10;;;;;;;15.20;6.13;;;;;;;-3.52;100.00;103437.88;5042841;28;20049;-63
2021/03/06 01:24:36;;;;;;;10.25;5.93;;;;;;;-3.49;100.00;103439.66;5041874;28;20099;-64
2021/03/06 01:27:02;;;;;;;9.63;5.25;;;;;;;-3.52;100.00;103436.16;5039819;28;20119;-63
2021/03/06 01:29:28;;;;;;;14.70;6.05;;;;;;;-3.49;100.00;103434.41;5040110;28;20053;-64
2021/03/06 01:31:54;;;;;;;13.63;5.88;;;;;;;-3.52;100.00;103433.53;5039659;28;20050;-65
2021/03/06 01:34:20;;;;;;;14.15;6.53;;;;;;;-3.52;100.00;103433.53;5041109;28;20068;-62
2021/03/06 01:36:46;;;;;;;11.35;5.78;;;;;;;-3.56;100.00;103436.97;5039803;28;20049;-64
2021/03/06 01:39:13;;;;;;;12.77;5.82;;;;;;;-3.54;100.00;103435.22;5041109;28;20045;-64
2021/03/06 01:41:39;;;;;;;10.60;5.82;;;;;;;-3.56;100.00;103436.09;5039710;28;20348;-62
2021/03/06 01:44:05;;;;;;;8.57;5.22;;;;;;;-3.63;100.00;103429.00;5045016;28;20776;-64
2021/03/06 01:46:31;;;;;;;11.20;5.43;;;;;;;-3.70;100.00;103431.53;5051941;28;20048;-65
2021/03/06 01:51:52;;;;;;;9.82;5.68;;;;;;;-3.73;100.00;103433.25;5109991;22;20052;-65
2021/03/06 01:54:22;;;;;;;10.65;6.55;;;;;;;-3.68;100.00;103430.66;5098676;28;20047;-64
2021/03/06 01:56:48;;;;;;;15.05;6.35;;;;;;;-3.72;100.00;103422.75;5098205;28;20047;-64
2021/03/06 01:59:14;;;;;;;13.35;6.63;;;;;;;-3.73;100.00;103422.72;5086318;28;20800;-63
2021/03/06 02:01:41;;;;;;;11.80;6.03;;;;;;;-3.78;100.00;103419.16;5078041;28;20055;-65
2021/03/06 02:04:07;;;;;;;14.77;6.80;;;;;;;-3.75;100.00;103427.09;5077141;28;20087;-64
2021/03/06 02:06:33;;;;;;;11.35;6.35;;;;;;;-3.64;100.00;103421.94;5076355;28;20398;-62
2021/03/06 02:08:59;;;;;;;11.65;6.10;;;;;;;-3.73;100.00;103420.09;5078282;28;20421;-64
2021/03/06 02:11:44;;;;;;;10.52;6.32;;;;;;;-3.85;100.00;103418.19;5078391;28;20048;-64
2021/03/06 02:14:36;;;;;;;12.68;6.15;;;;;;;-3.90;100.00;103420.75;5077067;28;20464;-64
2021/03/06 02:17:07;;;;;;;11.43;5.93;;;;;;;-3.87;100.00;103422.56;5077039;28;20096;-62
2021/03/06 02:19:54;;;;;;;11.88;5.82;;;;;;;-3.86;100.00;103421.66;5078160;28;20451;-64
2021/03/06 02:22:34;;;;;;;11.15;5.28;;;;;;;-3.93;100.00;103423.34;5075654;28;20051;-64
2021/03/06 02:25:04;;;;;;;;;;;;;;;-3.96;100.00;103419.78;5078366;28;20059;-63
2021/03/06 02:27:37;;;;;;;11.80;5.68;;;;;;;-4.01;100.00;103427.63;5076605;28;19927;-64
2021/03/06 02:30:07;;;;;;;9.98;5.82;;;;;;;-4.07;100.00;103414.38;5076916;28;20044;-63
2021/03/06 02:32:35;;;;;;;;;;;;;;;-4.09;100.00;103421.38;5078439;28;20051;-63
2021/03/06 02:35:07;;;;;;;10.68;6.25;;;;;;;-4.05;100.00;103420.53;5078214;28;19924;-62
2021/03/06 02:37:36;;;;;;;13.30;5.82;;;;;;;-3.92;100.00;103425.09;5076202;28;20058;-64
2021/03/06 02:40:03;;;;;;;9.68;6.05;;;;;;;-3.94;100.00;103408.41;5076350;28;20063;-64
2021/03/06 02:42:31;;;;;;;11.77;6.10;;;;;;;-3.85;100.00;103410.28;5096899;28;20112;-65
2021/03/06 02:44:57;;;;;;;13.38;6.07;;;;;;;-3.90;100.00;103404.06;5097786;28;20113;-64
2021/03/06 02:47:25;;;;;;;9.43;5.88;;;;;;;-3.87;100.00;103415.53;5097350;28;20052;-64
2021/03/06 02:49:52;;;;;;;13.32;6.57;;;;;;;-3.93;100.00;103402.31;5097443;28;20112;-65
2021/03/06 02:52:19;;;;;;;13.77;6.57;;;;;;;-4.03;100.00;103400.41;5085392;28;20067;-64
2021/03/06 02:54:45;;;;;;;21.05;6.10;;;;;;;-4.02;100.00;103404.78;5077009;28;20106;-62
2021/03/06 02:57:19;;;;;;;12.55;5.72;;;;;;;-3.99;100.00;103404.88;5076084;28;20083;-63
2021/03/06 02:59:58;;;;;;;12.07;5.70;;;;;;;-4.02;100.00;103403.91;5076738;28;20060;-62
2021/03/06 03:02:37;;;;;;;14.23;5.72;;;;;;;-4.07;100.00;103399.47;5076368;28;20052;-63
2021/03/06 03:05:10;;;;;;;11.85;6.10;;;;;;;-4.11;100.00;103392.44;5076708;28;20048;-64
2021/03/06 03:07:44;;;;;;;12.60;5.50;;;;;;;-4.12;100.00;103393.28;5074685;28;20118;-64
2021/03/06 03:10:12;;;;;;;11.38;5.88;;;;;;;-4.15;100.00;103389.72;5077196;28;20052;-64
2021/03/06 03:12:41;;;;;;;13.77;5.90;;;;;;;-4.12;100.00;103392.38;5076676;28;20052;-63
2021/03/06 03:15:12;;;;;;;9.23;5.00;;;;;;;-4.13;100.00;103385.38;5074954;28;20093;-62
2021/03/06 03:17:41;;;;;;;11.55;5.28;;;;;;;-4.13;100.00;103385.38;5077697;28;20367;-63
2021/03/06 03:20:15;;;;;;;11.55;4.97;;;;;;;-4.17;100.00;103379.19;5076303;28;20048;-63
2021/03/06 03:22:45;;;;;;;16.33;4.80;;;;;;;-4.19;100.00;103386.16;5077542;28;20500;-62
2021/03/06 03:25:12;;;;;;;13.02;4.90;;;;;;;-4.24;100.00;103394.00;5076829;28;20059;-62
2021/03/06 03:27:39;;;;;;;8.15;4.93;;;;;;;-4.24;100.00;103393.09;5077199;28;20052;-63
2021/03/06 03:30:09;;;;;;;8.07;4.78;;;;;;;-4.22;100.00;103391.41;5080625;28;20125;-62
2021/03/06 03:32:35;;;;;;;10.32;4.55;;;;;;;-4.25;100.00;103392.22;5081174;28;20048;-64
2021/03/06 03:35:04;;;;;;;10.70;4.80;;;;;;;-4.24;100.00;103390.47;5082564;28;20060;-63
2021/03/06 03:37:31;;;;;;;7.43;4.33;;;;;;;-4.38;100.00;103390.28;5080708;28;20044;-64
2021/03/06 03:39:57;;;;;;;14.75;5.15;;;;;;;-4.42;100.00;103386.75;5082060;28;20052;-62
2021/03/06 03:42:24;;;;;;;11.10;5.00;;;;;;;-4.44;100.00;103390.19;5079558;28;20049;-61
2021/03/06 03:44:51;;;;;;;11.63;5.10;;;;;;;-4.37;100.00;103392.06;5079446;28;20049;-63
2021/03/06 03:47:18;;;;;;;12.32;5.05;;;;;;;-4.29;100.00;103387.78;5079460;28;20059;-64
2021/03/06 03:49:44;;;;;;;11.82;5.82;;;;;;;-4.36;100.00;103388.53;5079087;28;20093;-63
2021/03/06 03:52:11;;;;;;;10.65;6.03;;;;;;;-4.43;100.00;103382.34;5078894;28;20048;-62
2021/03/06 03:54:39;;;;;;;12.35;5.32;;;;;;;-4.44;100.00;103384.94;5079919;28;20079;-64
2021/03/06 03:57:07;;;;;;;11.43;5.38;;;;;;;-4.42;100.00;103388.47;5080045;28;20048;-64
2021/03/06 03:59:33;;;;;;;11.95;5.25;;;;;;;-4.47;100.00;103384.91;5081605;28;20054;-63
2021/03/06 04:01:59;;;;;;;13.30;5.45;;;;;;;-4.51;100.00;103378.69;5080158;28;20052;-62
2021/03/06 04:04:29;;;;;;;9.60;5.03;;;;;;;-4.43;100.00;103386.69;5080220;28;20541;-63
2021/03/06 04:06:56;;;;;;;16.08;4.85;;;;;;;-4.41;100.00;103384.97;5080602;28;20056;-62
2021/03/06 04:09:24;;;;;;;10.40;4.82;;;;;;;-4.48;100.00;103394.50;5078394;28;20472;-64
2021/03/06 04:11:50;;;;;;;11.85;4.97;;;;;;;-4.53;100.00;103396.19;5081234;28;20052;-64
2021/03/06 04:14:16;;;;;;;8.77;5.03;;;;;;;-4.57;100.00;103394.38;5080234;28;20044;-63
2021/03/06 04:16:42;;;;;;;12.50;5.68;;;;;;;-4.59;100.00;103394.34;5080751;28;20565;-63
2021/03/06 04:19:08;;;;;;;7.90;4.78;;;;;;;-4.48;100.00;103399.75;5078436;28;20481;-63
2021/03/06 04:21:34;;;;;;;14.65;5.40;;;;;;;-4.50;100.00;103401.50;5079234;28;20059;-63
2021/03/06 04:24:01;;;;;;;9.25;5.40;;;;;;;-4.52;100.00;103397.06;5080308;28;20424;-63
2021/03/06 04:26:27;;;;;;;12.60;5.20;;;;;;;-4.59;100.00;103404.88;5079550;28;20044;-63
2021/03/06 04:28:53;;;;;;;12.90;6.13;;;;;;;-4.59;100.00;103402.25;5079490;28;20048;-63
2021/03/06 04:31:19;;;;;;;13.43;5.55;;;;;;;-4.53;100.00;103400.56;5079750;28;20048;-63
2021/03/06 04:33:46;;;;;;;13.85;6.00;;;;;;;-4.59;100.00;103402.25;5078976;28;20106;-62
2021/03/06 04:36:12;;;;;;;9.10;5.13;;;;;;;-4.64;100.00;103413.53;5080423;28;20055;-63
2021/03/06 04:38:38;;;;;;;11.23;5.90;;;;;;;-4.67;100.00;103414.34;5078691;28;20054;-63
2021/03/06 04:41:04;;;;;;;13.35;6.65;;;;;;;-4.66;100.00;103415.25;5079305;28;20052;-63
2021/03/06 04:43:31;;;;;;;14.95;5.90;;;;;;;-4.57;100.00;103416.28;5080323;28;20063;-62
2021/03/06 04:45:57;;;;;;;14.43;5.80;;;;;;;-4.57;100.00;103420.66;5080611;28;20676;-63
2021/03/06 04:48:23;;;;;;;11.27;5.97;;;;;;;-4.69;100.00;103415.22;5079339;28;20072;-63
2021/03/06 04:50:49;;;;;;;10.15;5.85;;;;;;;-4.82;100.00;103422.88;5078307;28;20083;-62
2021/03/06 04:53:15;;;;;;;11.85;5.13;;;;;;;-4.84;100.00;103423.75;5080498;28;20060;-62
2021/03/06 04:55:41;;;;;;;13.63;5.60;;;;;;;-4.87;100.00;103436.78;5079658;28;20048;-62
2021/03/06 04:58:07;;;;;;;10.90;5.90;;;;;;;-4.93;100.00;103433.22;5078102;28;20060;-62
2021/03/06 05:00:34;;;;;;;11.93;6.10;;;;;;;-4.96;100.00;103438.41;5080391;28;20485;-62
2021/03/06 05:03:00;;;;;;;9.65;5.53;;;;;;;-4.96;100.00;103437.50;5079945;28;20056;-64
2021/03/06 05:05:25;;;;;;;13.15;6.43;;;;;;;-4.95;100.00;103431.41;5080038;28;20052;-62
2021/03/06 05:07:51;;;;;;;14.63;6.15;;;;;;;-5.00;100.00;103435.72;5078354;28;20528;-64
2021/03/06 05:10:20;;;;;;;10.75;5.05;;;;;;;-5.01;100.00;103440.06;5078985;28;20527;-61
2021/03/06 05:12:46;;;;;;;10.77;4.93;;;;;;;-4.94;100.00;103438.44;5078635;28;20187;-63
2021/03/06 05:15:13;;;;;;;9.18;5.25;;;;;;;-4.98;100.00;103449.75;5077979;28;20556;-63
2021/03/06 05:17:40;;;;;;;11.45;5.53;;;;;;;-5.01;100.00;103445.31;5080255;28;20067;-63
2021/03/06 05:20:07;;;;;;;12.65;6.35;;;;;;;-5.04;100.00;103445.25;5077560;28;20109;-62
2021/03/06 05:25:00;;;;;;;15.90;6.13;;;;;;;-4.98;100.00;103450.63;5104729;22;20645;-62
2021/03/06 05:27:26;;;;;;;12.23;6.05;;;;;;;-4.94;100.00;103452.44;5060115;28;20393;-62
2021/03/06 05:29:53;;;;;;;10.48;5.50;;;;;;;-4.94;100.00;103443.69;5060486;28;20061;-62
2021/03/06 05:32:19;;;;;;;12.45;5.30;;;;;;;-4.99;100.00;103451.50;5060981;28;20060;-62
2021/03/06 05:34:46;;;;;;;15.00;6.45;;;;;;;-5.03;100.00;103447.03;5060034;28;20056;-64
2021/03/06 05:37:12;;;;;;;8.82;5.43;;;;;;;-5.06;100.00;103447.00;5059552;28;20057;-62
2021/03/06 05:39:38;;;;;;;12.38;5.88;;;;;;;-5.13;100.00;103450.34;5059879;28;20588;-62
2021/03/06 05:42:05;;;;;;;13.10;5.65;;;;;;;-5.12;100.00;103447.75;5059768;28;20529;-64
2021/03/06 05:44:34;;;;;;;11.65;5.25;;;;;;;-5.11;100.00;103446.00;5058608;28;20569;-62
2021/03/06 05:47:01;;;;;;;13.73;6.17;;;;;;;-5.04;100.00;103440.00;5058481;28;20053;-62
2021/03/06 05:49:27;;;;;;;11.35;5.30;;;;;;;-5.08;100.00;103448.69;5080285;28;20052;-63
2021/03/06 05:51:54;;;;;;;15.75;5.63;;;;;;;-5.15;100.00;103441.56;5078679;28;20063;-63
2021/03/06 05:54:25;;;;;;;9.15;5.63;;;;;;;-5.21;100.00;103449.31;5078405;28;20504;-62
2021/03/06 05:56:53;;;;;;;12.20;5.80;;;;;;;-5.23;100.00;103449.28;5080224;28;20126;-63
2021/03/06 05:59:20;;;;;;;12.90;5.90;;;;;;;-5.22;100.00;103447.56;5079522;28;20109;-62
2021/03/06 06:01:48;;;;;;;13.30;6.97;;;;;;;-5.19;100.00;103450.25;5080313;28;20404;-63
2021/03/06 06:04:16;;;;;;;18.25;7.18;;;;;;;-5.18;100.00;103459.88;5078354;28;20105;-62
2021/03/06 06:06:43;;;;;;;11.93;6.40;;;;;;;-5.13;100.00;103455.59;5080492;28;20064;-61
2021/03/06 06:09:10;;;;;;;12.30;6.85;;;;;;;-5.03;100.00;103459.28;5079075;28;20059;-62
2021/03/06 06:11:37;;;;;;;10.00;6.20;;;;;;;-4.93;100.00;103458.59;5079248;28;20059;-63
2021/03/06 06:14:04;;;;;;;11.55;6.05;;;;;;;-4.92;100.00;103460.34;5079168;28;20052;-63
2021/03/06 06:16:31;;;;;;;12.30;6.32;;;;;;;-4.82;100.00;103461.41;5080175;28;20052;-64
2021/03/06 06:18:57;;;;;;;12.73;6.20;;;;;;;-4.69;100.00;103468.66;5079737;28;20471;-62
2021/03/06 06:21:41;;;;;;;11.73;6.60;;;;;;;-4.57;100.00;103463.59;5076760;28;20044;-64
2021/03/06 06:24:09;;;;;;;17.67;9.35;;;;;;;-4.48;100.00;103472.50;5077899;28;20051;-62
2021/03/06 06:26:37;;;;;;;14.38;7.00;;;;;;;-4.46;100.00;103471.66;5080021;28;20054;-64
2021/03/06 06:29:03;;;;;;;11.35;6.68;;;;;;;-4.30;100.00;103478.06;5078423;28;20563;-61
2021/03/06 06:31:29;;;;;;;16.77;6.25;;;;;;;-4.29;100.00;103465.78;5077766;28;20056;-63
2021/03/06 06:33:55;;;;;;;14.77;6.63;;;;;;;-4.14;100.00;103473.03;5079719;28;20067;-62
2021/03/06 06:36:35;;;;;;;15.43;6.85;;;;;;;-4.08;100.00;103474.00;5077834;28;20051;-62
2021/03/06 06:39:02;;;;;;;15.80;7.18;;;;;;;-4.17;100.00;103472.97;5079136;28;20059;-63
2021/03/06 06:41:51;;;;;;;12.18;6.78;;;;;;;-4.13;100.00;103472.16;5066157;28;20133;-63
2021/03/06 06:44:17;;;;;;;;;;;;;;;-3.98;100.00;103475.00;5057844;28;20049;-62
2021/03/06 06:46:43;;;;;;;17.42;9.13;;;;;;;-4.04;100.00;103488.06;5059401;28;19931;-62
2021/03/06 06:49:09;;;;;;;14.50;8.10;;;;;;;-3.98;100.00;103485.53;5058608;28;20053;-63
2021/03/06 06:51:35;;;;;;;17.92;7.75;;;;;;;-3.83;100.00;103492.75;5056342;28;20053;-62
2021/03/06 06:54:12;;;;;;;19.52;8.85;;;;;;;-3.76;100.00;103494.59;5059709;28;20087;-62
2021/03/06 06:56:39;;;;;;;14.35;7.65;;;;;;;-3.65;100.00;103500.03;5078588;28;20051;-64
2021/03/06 06:59:08;;;;;;;22.63;8.85;;;;;;;-3.61;100.00;103493.94;5079241;28;20060;-62
2021/03/06 07:01:36;;;;;;;17.65;8.13;;;;;;;-3.53;100.00;103496.69;5079425;28;20547;-64
2021/03/06 07:04:04;;;;;;;15.93;8.68;;;;;;;-3.44;100.00;103503.81;5076804;28;20190;-62
2021/03/06 07:06:30;;;;;;;24.17;10.25;;;;;;;-3.27;100.00;103512.78;5080296;28;20070;-64
2021/03/06 07:09:07;;;;;;;17.08;10.27;;;;;;;-3.03;100.00;103506.06;5080432;28;20539;-63
2021/03/06 07:11:33;;;;;;;22.85;9.98;;;;;;;-2.87;100.00;103507.97;5079659;28;20044;-63
2021/03/06 07:13:59;;;;;;;17.42;10.25;;;;;;;-2.97;100.00;103516.66;5080475;28;20057;-63
2021/03/06 07:16:57;;;;;;;16.23;10.38;;;;;;;-2.71;100.00;103513.41;5079934;28;20100;-63
2021/03/06 07:19:24;;;;;;;19.27;10.18;;;;;;;-2.66;100.00;103514.34;5080305;28;20405;-63
2021/03/06 07:21:51;;;;;;;17.52;10.05;;;;;;;-2.51;100.00;103511.81;5079840;28;20044;-64
2021/03/06 07:24:17;;;;;;;27.98;10.88;;;;;;;-2.60;100.00;103506.47;5079329;28;20047;-63
2021/03/06 07:26:44;;;;;;;23.60;10.73;;;;;;;-2.21;100.00;103525.25;5080006;28;20045;-63
2021/03/06 07:29:10;;;;;;;19.52;10.38;;;;;;;-2.18;100.00;103526.19;5078769;28;20052;-64
2021/03/06 07:31:38;;;;;;;20.63;10.23;;;;;;;-2.33;100.00;103526.91;5078654;28;20051;-62
2021/03/06 07:34:06;;;;;;;20.25;10.48;;;;;;;-2.27;100.00;103522.59;5079226;28;20044;-62
2021/03/06 07:36:36;;;;;;;17.48;10.00;;;;;;;-1.89;100.00;103525.50;5078852;28;20094;-62
2021/03/06 07:39:03;;;;;;;18.17;10.00;;;;;;;-1.87;100.00;103523.75;5078143;28;20067;-63
2021/03/06 07:41:32;;;;;;;14.65;9.75;;;;;;;-1.64;100.00;103515.97;5078652;28;20067;-64
2021/03/06 07:43:59;;;;;;;17.67;9.63;;;;;;;-1.69;100.00;103519.44;5079016;28;20749;-62
2021/03/06 07:46:26;;;;;;;17.38;8.60;;;;;;;-1.60;100.00;103515.09;5086280;28;20138;-64
2021/03/06 07:48:53;;;;;;;16.15;9.20;;;;;;;-1.38;100.00;103516.94;5134723;22;20059;-64
2021/03/06 07:51:22;;;;;;;20.00;9.30;;;;;;;-1.29;100.00;103520.53;5097260;28;20050;-62
2021/03/06 07:53:48;;;;;;;19.67;9.68;;;;;;;-1.28;100.00;103519.66;5097034;28;20044;-63
2021/03/06 07:56:14;;;;;;;18.63;9.43;;;;;;;-0.89;100.00;103507.44;5096677;28;20489;-63
2021/03/06 07:58:48;;;;;;;22.05;9.85;;;;;;;-0.84;100.00;103507.47;5094848;28;20079;-65
2021/03/06 08:01:27;;;;;;;18.95;9.85;;;;;;;-0.74;100.00;103510.97;5085266;28;20442;-64
2021/03/06 08:03:53;;;;;;;13.98;9.18;;;;;;;-0.73;100.00;103504.81;5097080;28;20078;-65
2021/03/06 08:06:21;;;;;;;20.23;9.35;;;;;;;-0.51;100.00;103505.72;5095191;28;20136;-64
2021/03/06 08:09:02;;;;;;;21.20;11.30;;;;;;;-0.59;100.00;103513.66;5095054;28;20120;-63
2021/03/06 08:11:46;;;;;;;17.90;10.63;;;;;;;-0.34;100.00;103505.72;5096708;28;20055;-63
2021/03/06 08:14:37;;;;;;;13.80;9.40;;;;;;;-0.07;100.00;103510.13;5096776;28;20047;-64
2021/03/06 08:17:04;;;;;;;12.68;8.85;;;;;;;0.20;100.00;103513.59;5098689;28;20072;-64
2021/03/06 08:19:33;;;;;;;19.05;9.20;;;;;;;0.41;100.00;103502.03;5099360;28;20047;-65
2021/03/06 08:22:15;;;;;;;17.65;9.75;;;;;;;0.58;100.00;103503.78;5102035;27;20101;-64
2021/03/06 08:24:42;;;;;;;20.85;9.73;;;;;;;0.59;100.00;103508.16;5098259;28;20051;-65
2021/03/06 08:27:18;;;;;;;15.63;9.50;;;;;;;0.88;100.00;103502.75;5098968;27;20097;-65
2021/03/06 08:29:46;;;;;;;20.20;9.68;;;;;;;1.01;100.00;103507.06;5098098;28;20116;-65
2021/03/06 08:32:13;;;;;;;20.23;10.43;;;;;;;1.03;100.00;103505.31;5099233;27;20074;-65
2021/03/06 08:34:45;;;;;;;18.75;9.90;;;;;;;0.94;100.00;103508.00;5100682;28;20525;-64
2021/03/06 08:37:32;;;;;;;18.85;10.50;;;;;;;1.07;100.00;103514.13;5098823;27;20056;-64
2021/03/06 08:40:01;;;;;;;15.85;9.95;;;;;;;1.03;100.00;103510.63;5099889;28;20044;-64
2021/03/06 08:42:28;;;;;;;18.33;10.30;;;;;;;1.08;100.00;103507.06;5099499;28;20044;-63
2021/03/06 08:44:57;;;;;;;15.75;10.32;;;;;;;1.15;100.00;103506.13;5098994;28;20404;-63
2021/03/06 08:47:25;;;;;;;15.38;10.05;;;;;;;1.39;100.00;103508.59;5098764;28;20461;-65
2021/03/06 08:49:53;;;;;;;17.77;10.13;;;;;;;1.37;100.00;103509.50;5100692;28;20116;-63
2021/03/06 08:52:20;;;;;;;18.85;11.38;;;;;;;1.51;100.00;103501.44;5099552;28;20497;-63
2021/03/06 08:54:47;;;;;;;19.90;9.75;;;;;;;1.67;100.00;103508.38;5099681;27;20492;-65
2021/03/06 08:57:24;;;;;;;15.85;9.43;;;;;;;1.70;100.00;103502.19;5098583;28;20051;-63
2021/03/06 08:59:51;;;;;;;22.15;10.65;;;;;;;1.86;100.00;103510.91;5088809;28;20464;-63
2021/03/06 09:02:19;;;;;;;19.65;10.20;;;;;;;2.28;100.00;103508.69;5099307;27;20048;-63
2021/03/06 09:04:45;;;;;;;20.90;10.23;;;;;;;2.30;100.00;103517.53;5089899;28;20134;-64
2021/03/06 09:07:11;;;;;;;20.63;10.07;;;;;;;2.55;100.00;103507.50;5099426;28;20056;-65
2021/03/06 09:10:11;;;;;;;20.25;10.05;;;;;;;2.58;100.00;103509.25;5103337;22;20056;-63
2021/03/06 09:12:40;;;;;;;18.27;9.30;;;;;;;2.62;100.00;103514.50;5025946;28;20410;-64
2021/03/06 09:15:07;;;;;;;16.48;9.50;;;;;;;2.78;100.00;103522.25;5011896;28;20050;-63
2021/03/06 09:17:33;;;;;;;17.17;9.00;;;;;;;2.75;100.00;103525.88;5008757;28;20049;-64
2021/03/06 09:20:02;;;;;;;19.08;7.28;;;;;;;3.00;100.00;103519.31;5009747;28;20081;-65
2021/03/06 09:22:28;;;;;;;9.30;5.93;;;;;;;3.20;100.00;103513.72;5028636;28;20405;-64
2021/03/06 09:24:54;;;;;;;11.18;5.43;;;;;;;3.33;100.00;103515.31;5048082;28;20072;-64
2021/03/06 09:27:20;;;;;;;9.80;5.80;;;;;;;3.55;100.00;103521.16;5046571;28;20061;-64
2021/03/06 09:29:47;;;;;;;13.35;4.60;;;;;;;3.38;100.00;103513.44;5046596;28;20048;-64
2021/03/06 09:32:14;;;;;;;8.70;3.30;;;;;;;3.54;100.00;103518.53;5046027;28;20045;-63
2021/03/06 09:34:42;;;;;;;6.68;3.00;;;;;;;3.56;96.38;103511.38;5046374;28;20118;-65
2021/03/06 09:37:14;;;;;;;4.03;2.65;;;;;;;3.66;96.17;103508.53;5045734;28;20048;-64
2021/03/06 09:39:41;;;;;;;6.03;1.90;;;;;;;3.58;90.62;103512.22;5044564;28;20045;-65
2021/03/06 09:42:07;;;;;;;3.38;1.55;;;;;;;3.66;87.54;103511.19;5045782;28;20053;-64
2021/03/06 09:44:33;;;;;;;2.90;1.33;;;;;;;3.89;82.28;103512.59;5047178;28;20053;-64
2021/03/06 09:47:01;;;;;;;6.05;1.88;;;;;;;4.10;82.52;103503.31;5045724;28;20405;-64
2021/03/06 09:49:33;;;;;;;6.88;2.42;;;;;;;4.16;83.48;103497.88;5045568;28;20052;-64
2021/03/06 09:52:00;;;;;;;5.88;2.40;;;;;;;4.34;86.86;103498.44;5046138;28;20099;-64
2021/03/06 09:54:27;;;;;;;3.05;1.30;;;;;;;4.56;77.25;103486.44;5047191;28;20052;-63
2021/03/06 09:56:55;;;;;;;4.28;1.15;;;;;;;4.46;78.32;103487.53;5046680;28;20052;-64
2021/03/06 09:59:21;;;;;;;5.00;1.38;;;;;;;4.49;77.65;103474.13;5047554;28;20060;-64
2021/03/06 10:01:48;;;;;;;4.00;1.55;;;;;;;4.64;76.90;103474.69;5046904;28;20037;-64
2021/03/06 10:04:16;;;;;;;3.42;1.40;;;;;;;4.47;77.09;103475.94;5046167;28;20532;-65
2021/03/06 10:06:45;;;;;;;4.93;1.63;;;;;;;4.52;78.38;103476.72;5037134;28;20051;-64
2021/03/06 10:09:12;;;;;;;3.20;1.52;;;;;;;4.54;75.18;103471.38;5045768;28;20136;-64
2021/03/06 10:11:40;;;;;;;5.03;1.30;;;;;;;4.66;74.81;103475.56;5046460;28;20056;-64
2021/03/06 10:14:07;;;;;;;4.72;1.20;;;;;;;4.60;74.68;103478.34;5014857;28;20051;-65
2021/03/06 10:16:45;;;;;;;3.05;1.33;;;;;;;4.55;75.82;103468.66;5042465;28;20053;-63
2021/03/06 10:19:11;;;;;;;3.65;1.33;;;;;;;4.71;72.67;103476.31;5041707;28;20049;-64
2021/03/06 10:21:37;;;;;;;3.25;1.50;;;;;;;5.09;72.43;103470.13;5045289;28;20057;-65
2021/03/06 10:24:06;;;;;;;2.63;1.00;;;;;;;5.30;68.13;103472.31;5040720;28;20053;-63
2021/03/06 10:26:32;;;;;;;3.05;1.45;;;;;;;5.09;68.77;103466.56;5041376;28;20102;-63
2021/03/06 10:29:00;;;;;;;7.00;1.38;;;;;;;4.93;69.05;103467.84;5046004;28;20098;-63
2021/03/06 10:31:32;;;;;;;5.85;1.38;;;;;;;5.01;69.15;103465.88;5048021;28;20144;-63
2021/03/06 10:33:59;;;;;;;1.80;1.10;;;;;;;5.28;68.90;103474.16;5048669;28;20065;-63
2021/03/06 10:36:26;;;;;;;4.93;1.10;;;;;;;5.38;68.42;103475.69;5048073;28;20044;-63
2021/03/06 10:39:17;;;;;;;2.72;1.10;;;;;;;5.38;67.54;103475.69;5046841;28;20072;-63
2021/03/06 10:41:45;;;;;;;2.47;0.85;;;;;;;5.59;67.54;103475.16;5047540;28;20045;-63
2021/03/06 10:44:12;;;;;;;2.05;1.00;;;;;;;5.73;66.80;103476.59;5047030;28;20047;-64
2021/03/06 10:46:38;;;;;;;2.53;1.10;;;;;;;5.56;68.50;103480.53;5047941;28;20080;-64
2021/03/06 10:49:06;;;;;;;2.10;0.75;;;;;;;5.70;67.32;103472.19;5045964;28;20064;-63
2021/03/06 10:51:44;;;;;;;2.92;1.23;;;;;;;5.88;66.88;103469.97;5047513;28;20124;-63
2021/03/06 10:54:11;;;;;;;5.57;1.45;;;;;;;6.06;68.54;103471.28;5046889;28;20144;-64
2021/03/06 10:56:39;;;;;;;5.22;1.83;;;;;;;6.31;66.19;103458.97;5047961;28;20045;-64
2021/03/06 10:59:05;;;;;;;6.35;1.83;;;;;;;6.42;66.66;103452.41;5047724;28;20068;-64
2021/03/06 11:01:33;;;;;;;5.43;1.58;;;;;;;6.10;65.56;103451.56;5047856;28;20045;-64
2021/03/06 11:03:59;;;;;;;2.80;1.52;;;;;;;6.14;67.23;103453.25;5048283;28;20064;-64
2021/03/06 11:06:25;;;;;;;5.65;1.90;;;;;;;6.58;66.87;103451.06;5046972;28;20067;-63
2021/03/06 11:09:02;;;;;;;2.92;1.63;;;;;;;6.45;65.34;103452.34;5047724;28;20056;-64
2021/03/06 11:11:28;;;;;;;3.15;2.05;;;;;;;6.41;63.04;103448.00;5047447;28;20052;-64
2021/03/06 11:13:55;;;;;;;4.20;1.80;;;;;;;6.39;64.76;103440.03;5048540;28;20056;-64
2021/03/06 11:16:38;;;;;;;6.00;1.60;;;;;;;6.29;65.47;103439.41;5047387;28;20381;-64
2021/03/06 11:19:05;;;;;;;3.20;1.65;;;;;;;5.69;68.66;103438.38;5047382;28;20060;-64
2021/03/06 11:21:31;;;;;;;5.25;1.90;;;;;;;6.04;67.78;103435.69;5048644;28;20056;-64
2021/03/06 11:23:57;;;;;;;6.10;2.22;;;;;;;6.19;66.97;103437.94;5049285;28;20110;-64
2021/03/06 11:26:23;;;;;;;6.20;2.33;;;;;;;6.27;67.03;103441.28;5068330;22;20041;-64
2021/03/06 11:28:49;;;;;;;6.05;2.08;;;;;;;6.24;66.90;103436.00;5077874;28;20499;-64